createdAt,value
2022-10-20T00:00:12.468Z,71.57
2022-10-20T00:03:40.372Z,71.66
2022-10-20T00:07:09.093Z,71.75
2022-10-20T00:10:00.171Z,71.85
2022-10-20T00:13:09.318Z,71.85
2022-10-20T00:16:42.192Z,72.05
2022-10-20T00:19:42.947Z,71.96
2022-10-20T00:26:43.739Z,71.85
2022-10-20T00:33:53.192Z,72.22
2022-10-20T00:42:49.141Z,72.10
2022-10-20T00:46:07.336Z,72.14
2022-10-20T00:49:01.077Z,72.00
2022-10-20T01:10:11.334Z,72.01
2022-10-20T01:18:10.466Z,72.11
2022-10-20T01:21:30.871Z,72.03
2022-10-20T01:25:15.309Z,72.17
2022-10-20T01:28:49.586Z,72.24
2022-10-20T01:32:08.492Z,72.08
2022-10-20T01:35:24.087Z,72.03
2022-10-20T01:38:16.494Z,72.12
2022-10-20T01:41:53.418Z,72.10
2022-10-20T01:44:46.932Z,72.06
2022-10-20T02:19:36.859Z,72.56
2022-10-20T02:29:44.600Z,72.49
2022-10-20T02:33:33.540Z,72.34
2022-10-20T02:36:21.202Z,72.54
2022-10-20T02:43:13.281Z,72.60
2022-10-20T02:46:35.368Z,72.42
2022-10-20T02:49:49.412Z,72.42
2022-10-20T02:54:23.446Z,72.54
2022-10-20T02:56:18.553Z,72.49
2022-10-20T02:59:47.896Z,72.57
2022-10-20T03:03:11.874Z,72.28
2022-10-20T03:11:29.039Z,72.88
2022-10-20T03:16:39.995Z,72.97
2022-10-20T03:23:20.448Z,73.18
2022-10-20T03:33:40.785Z,73.09
2022-10-20T03:36:48.039Z,73.11
2022-10-20T03:40:00.238Z,73.05
2022-10-20T03:54:02.264Z,72.95
2022-10-20T03:57:10.072Z,72.89
2022-10-20T04:00:06.346Z,72.73
2022-10-20T04:03:13.709Z,72.72
2022-10-20T04:06:16.576Z,72.88
2022-10-20T04:15:30.319Z,72.95
2022-10-20T04:21:58.469Z,72.45
2022-10-20T04:24:47.507Z,72.32
2022-10-20T04:27:49.658Z,72.45
2022-10-20T04:31:00.618Z,72.83
2022-10-20T04:37:12.066Z,73.35
2022-10-20T04:40:04.761Z,73.35
2022-10-20T04:42:53.893Z,73.37
2022-10-20T04:46:09.313Z,73.30
2022-10-20T04:49:30.593Z,73.00
2022-10-20T04:53:03.980Z,73.32
2022-10-20T04:56:22.026Z,73.49
2022-10-20T04:59:32.701Z,73.37
2022-10-20T05:03:01.017Z,73.46
2022-10-20T05:06:06.021Z,73.53
2022-10-20T05:08:54.726Z,73.68
2022-10-20T05:11:34.527Z,73.38
2022-10-20T05:16:35.677Z,73.40
2022-10-20T05:18:40.111Z,73.57
2022-10-20T05:22:09.255Z,73.43
2022-10-20T05:25:35.651Z,73.43
2022-10-20T05:29:08.309Z,73.48
2022-10-20T05:32:27.455Z,73.58
2022-10-20T05:36:22.723Z,74.00
2022-10-20T05:38:46.324Z,74.09
2022-10-20T05:41:52.535Z,73.94
2022-10-20T05:44:50.784Z,73.88
2022-10-20T05:47:40.497Z,73.80
2022-10-20T05:50:54.088Z,73.76
2022-10-20T05:53:41.347Z,73.95
2022-10-20T05:56:36.340Z,74.01
2022-10-20T05:59:49.552Z,74.14
2022-10-20T06:03:19.863Z,73.95
2022-10-20T06:10:44.401Z,73.63
2022-10-20T06:13:39.728Z,73.81
2022-10-20T06:16:34.873Z,73.96
2022-10-20T06:19:28.686Z,74.21
2022-10-20T06:22:05.969Z,74.54
2022-10-20T06:24:51.692Z,74.71
2022-10-20T06:27:20.828Z,75.04
2022-10-20T06:30:00.725Z,74.98
2022-10-20T06:33:20.477Z,74.93
2022-10-20T06:36:40.824Z,74.98
2022-10-20T06:39:29.111Z,74.91
2022-10-20T06:42:26.259Z,74.96
2022-10-20T06:45:22.851Z,75.20
2022-10-20T06:48:11.512Z,75.21
2022-10-20T06:51:42.982Z,75.23
2022-10-20T06:54:53.207Z,75.40
2022-10-20T06:57:56.519Z,75.41
2022-10-20T07:01:05.571Z,75.25
2022-10-20T07:10:12.714Z,75.68
2022-10-20T07:16:28.694Z,76.27
2022-10-20T07:19:33.928Z,76.40
2022-10-20T07:25:40.921Z,76.74
2022-10-20T07:28:30.826Z,76.79
2022-10-20T07:31:10.676Z,76.83
2022-10-20T07:34:32.273Z,76.37
2022-10-20T07:37:36.058Z,76.30
2022-10-20T07:40:35.191Z,76.48
2022-10-20T07:43:37.979Z,76.52
2022-10-20T07:46:15.960Z,76.32
2022-10-20T07:49:31.435Z,75.70
2022-10-20T07:51:51.974Z,75.18
2022-10-20T07:54:24.595Z,74.50
2022-10-20T07:56:56.314Z,73.72
2022-10-20T07:59:26.055Z,72.73
2022-10-20T08:01:59.555Z,71.43
2022-10-20T08:04:31.860Z,71.03
2022-10-20T08:07:04.192Z,70.34
2022-10-20T08:09:34.581Z,68.86
2022-10-20T08:12:06.352Z,68.04
2022-10-20T08:14:39.188Z,67.62
2022-10-20T08:17:11.478Z,66.93
2022-10-20T08:22:27.238Z,66.20
2022-10-20T08:25:01.581Z,65.60
2022-10-20T08:27:46.495Z,65.59
2022-10-20T08:30:24.160Z,65.15
2022-10-20T08:33:52.138Z,64.79
2022-10-20T08:36:50.805Z,65.00
2022-10-20T08:39:28.190Z,64.45
2022-10-20T08:45:19.846Z,63.20
2022-10-20T08:48:34.780Z,62.64
2022-10-20T08:51:42.509Z,63.16
2022-10-20T08:54:26.566Z,63.15
2022-10-20T08:57:10.240Z,63.19
2022-10-20T08:59:48.801Z,63.07
2022-10-20T09:02:27.603Z,62.60
2022-10-20T09:05:16.777Z,62.44
2022-10-20T09:08:07.863Z,62.33
2022-10-20T09:10:54.101Z,62.70
2022-10-20T09:13:46.085Z,62.60
2022-10-20T09:16:55.383Z,62.69
2022-10-20T09:20:28.279Z,62.50
2022-10-20T09:23:28.363Z,61.76
2022-10-20T09:27:05.249Z,61.72
2022-10-20T09:29:53.683Z,61.68
2022-10-20T09:32:47.837Z,61.24
2022-10-20T09:35:31.695Z,61.05
2022-10-20T09:38:36.874Z,60.93
2022-10-20T09:41:44.140Z,60.58
2022-10-20T09:48:33.216Z,58.75
2022-10-20T09:51:08.790Z,57.65
2022-10-20T09:54:16.049Z,57.16
2022-10-20T09:57:15.305Z,57.83
2022-10-20T10:00:25.206Z,57.82
2022-10-20T10:03:23.551Z,56.85
2022-10-20T10:06:54.014Z,55.98
2022-10-20T10:09:32.122Z,55.17
2022-10-20T10:12:20.803Z,55.07
2022-10-20T10:15:05.430Z,53.44
2022-10-20T10:17:46.607Z,50.89
2022-10-20T10:21:12.231Z,50.91
2022-10-20T10:24:07.850Z,50.98
2022-10-20T10:26:55.159Z,50.19
2022-10-20T10:29:37.496Z,47.90
2022-10-20T10:32:28.555Z,48.61
2022-10-20T10:35:10.199Z,49.15
2022-10-20T10:37:43.283Z,50.66
2022-10-20T10:40:32.767Z,50.50
2022-10-20T10:43:33.515Z,50.41
2022-10-20T10:46:16.835Z,49.31
2022-10-20T10:49:07.334Z,48.27
2022-10-20T10:52:16.874Z,46.77
2022-10-20T10:55:49.111Z,45.86
2022-10-20T10:58:37.618Z,45.73
2022-10-20T11:01:18.530Z,46.06
2022-10-20T11:04:14.274Z,45.52
2022-10-20T11:06:54.225Z,44.97
2022-10-20T11:09:35.405Z,45.99
2022-10-20T11:12:22.762Z,46.91
2022-10-20T11:15:27.086Z,47.65
2022-10-20T11:18:09.960Z,47.44
2022-10-20T11:21:02.644Z,47.43
2022-10-20T11:24:08.889Z,47.97
2022-10-20T11:26:44.001Z,48.46
2022-10-20T11:29:32.668Z,49.29
2022-10-20T11:32:16.955Z,49.64
2022-10-20T11:35:36.204Z,49.87
2022-10-20T11:38:39.578Z,49.96
2022-10-20T11:41:53.229Z,50.02
2022-10-20T11:44:46.083Z,50.69
2022-10-20T11:47:32.266Z,50.82
2022-10-20T11:50:05.571Z,51.12
2022-10-20T11:53:16.067Z,51.35
2022-10-20T11:56:03.535Z,51.47
2022-10-20T11:58:46.199Z,51.62
2022-10-20T12:02:29.589Z,51.79
2022-10-20T12:05:20.279Z,52.07
2022-10-20T12:08:46.824Z,52.11
2022-10-20T12:11:25.589Z,51.99
2022-10-20T12:14:15.625Z,51.77
2022-10-20T12:16:56.240Z,51.96
2022-10-20T12:19:30.762Z,51.80
2022-10-20T12:22:04.942Z,51.87
2022-10-20T12:24:37.474Z,51.82
2022-10-20T12:27:09.845Z,51.89
2022-10-20T12:29:43.643Z,51.84
2022-10-20T12:33:00.761Z,51.83
2022-10-20T12:36:01.619Z,52.03
2022-10-20T12:38:33.156Z,52.13
2022-10-20T12:41:03.132Z,52.15
2022-10-20T12:44:00.931Z,52.41
2022-10-20T12:46:46.107Z,52.48
2022-10-20T12:49:51.524Z,52.32
2022-10-20T12:52:29.111Z,52.39
2022-10-20T12:55:14.280Z,52.50
2022-10-20T12:57:46.244Z,52.45
2022-10-20T13:00:24.367Z,52.53
2022-10-20T13:02:58.255Z,52.43
2022-10-20T13:05:47.625Z,52.44
2022-10-20T13:08:21.007Z,52.46
2022-10-20T13:10:50.675Z,52.45
2022-10-20T13:13:19.829Z,52.22
2022-10-20T13:15:57.343Z,52.08
2022-10-20T13:18:31.832Z,51.99
2022-10-20T13:21:29.092Z,52.01
2022-10-20T13:24:16.244Z,51.93
2022-10-20T13:26:59.725Z,51.99
2022-10-20T13:29:37.033Z,51.82
2022-10-20T13:32:43.498Z,51.85
2022-10-20T13:35:47.439Z,51.99
2022-10-20T13:38:34.112Z,52.10
2022-10-20T13:41:42.483Z,51.88
2022-10-20T13:44:44.592Z,51.99
2022-10-20T13:47:28.711Z,51.95
2022-10-20T13:50:10.317Z,52.09
2022-10-20T13:52:50.666Z,52.15
2022-10-20T13:55:51.529Z,52.29
2022-10-20T13:58:26.845Z,52.59
2022-10-20T14:01:05.033Z,52.69
2022-10-20T14:03:44.793Z,52.69
2022-10-20T14:06:41.746Z,52.77
2022-10-20T14:09:31.396Z,52.79
2022-10-20T14:12:27.104Z,52.91
2022-10-20T14:15:01.982Z,52.88
2022-10-20T14:17:40.523Z,52.96
2022-10-20T14:20:41.849Z,53.03
2022-10-20T14:23:11.855Z,53.01
2022-10-20T14:25:41.895Z,53.16
2022-10-20T14:28:21.171Z,53.13
2022-10-20T14:30:52.479Z,53.24
2022-10-20T14:33:24.703Z,53.37
2022-10-20T14:36:08.218Z,53.38
2022-10-20T14:38:42.252Z,53.47
2022-10-20T14:41:33.113Z,53.53
2022-10-20T14:44:17.397Z,53.59
2022-10-20T14:46:59.950Z,53.67
2022-10-20T14:49:39.676Z,53.73
2022-10-20T14:52:21.251Z,53.72
2022-10-20T14:54:52.412Z,53.76
2022-10-20T14:57:26.329Z,53.84
2022-10-20T15:00:36.951Z,53.87
2022-10-20T15:03:12.714Z,54.12
2022-10-20T15:05:54.496Z,54.05
2022-10-20T15:08:33.038Z,54.05
2022-10-20T15:11:20.260Z,54.09
2022-10-20T15:13:54.129Z,54.17
2022-10-20T15:16:44.014Z,54.22
2022-10-20T15:19:37.676Z,54.30
2022-10-20T15:22:21.015Z,54.27
2022-10-20T15:24:56.345Z,54.39
2022-10-20T15:27:40.972Z,54.57
2022-10-20T15:30:21.932Z,54.62
2022-10-20T15:32:59.687Z,54.80
2022-10-20T15:35:31.167Z,55.00
2022-10-20T15:38:02.430Z,55.19
2022-10-20T15:40:37.793Z,55.46
2022-10-20T15:43:17.315Z,55.63
2022-10-20T15:45:53.687Z,55.62
2022-10-20T15:48:27.262Z,55.82
2022-10-20T15:51:04.692Z,56.03
2022-10-20T15:53:48.754Z,56.25
2022-10-20T15:56:29.522Z,56.37
2022-10-20T16:01:43.313Z,56.72
2022-10-20T16:04:31.417Z,56.94
2022-10-20T16:07:03.384Z,57.06
2022-10-20T16:09:32.629Z,57.07
2022-10-20T16:12:08.243Z,57.16
2022-10-20T16:14:40.000Z,57.17
2022-10-20T16:17:14.540Z,57.31
2022-10-20T16:19:51.212Z,57.46
2022-10-20T16:22:31.886Z,57.49
2022-10-20T16:25:03.964Z,57.51
2022-10-20T16:27:34.555Z,57.54
2022-10-20T16:30:12.046Z,57.59
2022-10-20T16:32:47.619Z,57.77
2022-10-20T16:35:22.029Z,57.91
2022-10-20T16:37:59.463Z,57.99
2022-10-20T16:40:29.422Z,57.87
2022-10-20T16:43:01.597Z,58.08
2022-10-20T16:45:31.016Z,58.25
2022-10-20T16:48:05.774Z,58.34
2022-10-20T16:50:43.886Z,58.53
2022-10-20T16:53:37.337Z,58.64
2022-10-20T16:56:15.424Z,58.77
2022-10-20T16:59:01.241Z,58.95
2022-10-20T17:01:35.132Z,59.08
2022-10-20T17:04:06.592Z,59.10
2022-10-20T17:06:36.513Z,59.30
2022-10-20T17:09:18.357Z,59.36
2022-10-20T17:12:02.732Z,59.44
2022-10-20T17:14:36.327Z,59.53
2022-10-20T17:17:10.179Z,59.69
2022-10-20T17:19:45.489Z,59.82
2022-10-20T17:22:23.336Z,59.89
2022-10-20T17:25:03.699Z,59.97
2022-10-20T17:27:41.763Z,60.30
2022-10-20T17:30:24.568Z,60.29
2022-10-20T17:33:01.298Z,60.32
2022-10-20T17:35:40.883Z,60.49
2022-10-20T17:38:20.748Z,60.66
2022-10-20T17:40:53.910Z,60.72
2022-10-20T17:43:35.475Z,60.88
2022-10-20T17:46:12.817Z,61.11
2022-10-20T17:48:47.140Z,61.11
2022-10-20T17:51:27.731Z,61.17
2022-10-20T17:54:07.269Z,61.30
2022-10-20T17:56:55.007Z,61.39
2022-10-20T17:59:26.365Z,61.43
2022-10-20T18:02:01.361Z,61.58
2022-10-20T18:04:32.256Z,61.67
2022-10-20T18:07:01.778Z,61.70
2022-10-20T18:09:31.677Z,61.67
2022-10-20T18:12:02.189Z,61.73
2022-10-20T18:14:31.333Z,61.79
2022-10-20T18:17:02.646Z,61.88
2022-10-20T18:19:34.407Z,62.00
2022-10-20T18:22:08.193Z,61.93
2022-10-20T18:24:37.409Z,61.93
2022-10-20T18:27:07.797Z,61.99
2022-10-20T18:29:36.808Z,61.98
2022-10-20T18:32:05.978Z,62.09
2022-10-20T18:34:35.111Z,62.15
2022-10-20T18:37:09.095Z,62.28
2022-10-20T18:39:39.325Z,62.34
2022-10-20T18:42:23.568Z,62.40
2022-10-20T18:44:52.801Z,62.47
2022-10-20T18:47:27.210Z,62.53
2022-10-20T18:49:56.278Z,62.61
2022-10-20T18:52:25.414Z,62.55
2022-10-20T18:54:54.678Z,62.51
2022-10-20T18:57:24.238Z,62.54
2022-10-20T18:59:53.480Z,62.49
2022-10-20T19:02:24.352Z,62.63
2022-10-20T19:05:05.139Z,62.78
2022-10-20T19:07:34.846Z,62.83
2022-10-20T19:10:10.758Z,63.02
2022-10-20T19:12:49.703Z,63.09
2022-10-20T19:15:31.618Z,63.21
2022-10-20T19:18:04.669Z,63.15
2022-10-20T19:20:44.661Z,63.20
2022-10-20T19:23:20.959Z,63.51
2022-10-20T19:26:28.079Z,63.60
2022-10-20T19:29:04.704Z,63.66
2022-10-20T19:31:41.972Z,63.89
2022-10-20T19:34:40.204Z,64.04
2022-10-20T19:37:11.690Z,63.98
2022-10-20T19:39:46.558Z,64.16
2022-10-20T19:42:15.962Z,64.14
2022-10-20T19:44:48.157Z,64.19
2022-10-20T19:47:19.851Z,64.22
2022-10-20T19:49:52.108Z,64.27
2022-10-20T19:52:23.944Z,64.30
2022-10-20T19:54:53.025Z,64.29
2022-10-20T19:57:22.449Z,64.45
2022-10-20T19:59:51.651Z,64.50
2022-10-20T20:02:24.624Z,64.51
2022-10-20T20:04:53.872Z,64.66
2022-10-20T20:07:23.191Z,64.60
2022-10-20T20:09:54.763Z,64.49
2022-10-20T20:12:26.505Z,64.57
2022-10-20T20:14:55.566Z,64.61
2022-10-20T20:17:24.746Z,64.63
2022-10-20T20:19:53.857Z,64.68
2022-10-20T20:22:23.032Z,64.74
2022-10-20T20:24:52.155Z,64.68
2022-10-20T20:27:21.400Z,64.77
2022-10-20T20:29:52.869Z,64.67
2022-10-20T20:32:22.088Z,64.66
2022-10-20T20:34:51.702Z,64.62
2022-10-20T20:37:21.367Z,64.73
2022-10-20T20:39:50.802Z,64.88
2022-10-20T20:42:20.051Z,65.01
2022-10-20T20:44:49.161Z,65.17
2022-10-20T20:47:20.727Z,65.26
2022-10-20T20:49:58.837Z,65.25
2022-10-20T20:52:34.416Z,65.17
2022-10-20T20:55:06.155Z,65.20
2022-10-20T20:57:47.443Z,65.41
2022-10-20T21:00:21.329Z,65.52
2022-10-20T21:02:55.884Z,65.55
2022-10-20T21:05:33.916Z,65.74
2022-10-20T21:08:03.341Z,65.84
2022-10-20T21:10:34.985Z,65.85
2022-10-20T21:13:09.831Z,65.92
2022-10-20T21:15:40.123Z,65.99
2022-10-20T21:18:10.385Z,66.04
2022-10-20T21:20:44.524Z,66.10
2022-10-20T21:23:13.988Z,66.13
2022-10-20T21:25:46.761Z,66.12
2022-10-20T21:28:21.916Z,66.06
2022-10-20T21:30:57.456Z,66.07
2022-10-20T21:33:30.667Z,66.00
2022-10-20T21:36:32.311Z,66.02
2022-10-20T21:39:11.599Z,66.04
2022-10-20T21:41:47.877Z,65.83
2022-10-20T21:44:23.550Z,65.84
2022-10-20T21:46:52.876Z,65.83
2022-10-20T21:49:34.144Z,65.81
2022-10-20T21:52:22.927Z,65.77
2022-10-20T21:54:54.581Z,65.82
2022-10-20T21:57:41.748Z,65.80
2022-10-20T22:00:19.458Z,65.89
2022-10-20T22:02:52.281Z,66.07
2022-10-20T22:05:25.088Z,65.88
2022-10-20T22:08:04.056Z,65.77
2022-10-20T22:10:52.246Z,65.87
2022-10-20T22:13:35.117Z,66.04
2022-10-20T22:16:09.367Z,66.20
2022-10-20T22:18:51.594Z,66.34
2022-10-20T22:21:34.883Z,66.41
2022-10-20T22:24:24.148Z,66.49
2022-10-20T22:27:31.412Z,66.51
2022-10-20T22:30:29.178Z,66.62
2022-10-20T22:33:30.874Z,66.67
2022-10-20T22:36:26.909Z,66.72
2022-10-20T22:39:26.966Z,66.65
2022-10-20T22:42:09.698Z,66.71
2022-10-20T22:44:52.028Z,66.74
2022-10-20T22:47:52.550Z,66.72
2022-10-20T22:50:33.506Z,66.60
2022-10-20T22:53:27.388Z,66.72
2022-10-20T22:56:22.733Z,66.57
2022-10-20T22:59:04.598Z,66.58
2022-10-20T23:01:46.901Z,66.51
2022-10-20T23:04:21.607Z,66.43
2022-10-20T23:06:56.000Z,66.51
2022-10-20T23:09:34.428Z,66.56
2022-10-20T23:12:10.742Z,66.69
2022-10-20T23:14:41.036Z,66.67
2022-10-20T23:17:10.155Z,66.90
2022-10-20T23:19:40.707Z,66.87
2022-10-20T23:22:12.192Z,66.88
2022-10-20T23:24:43.636Z,66.84
2022-10-20T23:27:12.847Z,66.83
2022-10-20T23:29:45.950Z,66.85
2022-10-20T23:32:15.186Z,66.92
2022-10-20T23:34:48.690Z,67.00
2022-10-20T23:37:19.867Z,67.10
2022-10-20T23:39:55.770Z,67.11
2022-10-20T23:42:26.282Z,67.11
2022-10-20T23:45:07.154Z,67.22
2022-10-20T23:47:38.062Z,67.31
2022-10-20T23:50:14.529Z,67.31
2022-10-20T23:52:58.328Z,67.33
2022-10-20T23:55:27.586Z,67.37
2022-10-20T23:57:58.694Z,67.48
